createdAt,value
2022-12-05T00:01:16.714Z,24.10
2022-12-05T00:03:48.528Z,25.60
2022-12-05T00:06:16.736Z,23.40
2022-12-05T00:08:45.132Z,23.37
2022-12-05T00:11:14.510Z,23.13
2022-12-05T00:13:44.456Z,26.30
2022-12-05T00:16:14.610Z,25.20
2022-12-05T00:18:42.706Z,26.03
2022-12-05T00:21:14.783Z,25.20
2022-12-05T00:23:43.141Z,22.97
2022-12-05T00:26:11.676Z,25.47
2022-12-05T00:28:40.873Z,26.23
2022-12-05T00:31:12.353Z,25.63
2022-12-05T00:33:40.860Z,27.20
2022-12-05T00:36:11.114Z,27.27
2022-12-05T00:38:39.721Z,30.03
2022-12-05T00:41:09.497Z,27.40
2022-12-05T00:43:38.123Z,25.93
2022-12-05T00:46:08.520Z,25.50
2022-12-05T00:48:38.061Z,26.23
2022-12-05T00:51:08.388Z,25.07
2022-12-05T00:53:36.520Z,25.80
2022-12-05T00:56:05.517Z,25.33
2022-12-05T00:58:34.293Z,26.30
2022-12-05T01:01:07.598Z,26.37
2022-12-05T01:03:37.334Z,28.40
2022-12-05T01:06:06.095Z,25.53
2022-12-05T01:08:34.853Z,27.90
2022-12-05T01:11:04.261Z,27.47
2022-12-05T01:13:32.821Z,27.10
2022-12-05T01:16:00.832Z,26.93
2022-12-05T01:18:29.388Z,27.90
2022-12-05T01:20:58.828Z,30.37
2022-12-05T01:23:26.905Z,27.03
2022-12-05T01:25:54.878Z,27.30
2022-12-05T01:28:23.066Z,26.07
2022-12-05T01:30:51.710Z,25.77
2022-12-05T01:33:19.775Z,26.83
2022-12-05T01:35:47.769Z,25.70
2022-12-05T01:38:17.158Z,25.37
2022-12-05T01:40:45.148Z,27.80
2022-12-05T01:43:17.986Z,27.50
2022-12-05T01:45:47.754Z,28.37
2022-12-05T01:48:19.554Z,30.17
2022-12-05T01:50:48.542Z,25.70
2022-12-05T01:53:18.564Z,25.47
2022-12-05T01:55:48.672Z,23.90
2022-12-05T01:58:17.058Z,26.83
2022-12-05T02:00:45.971Z,23.80
2022-12-05T02:03:19.209Z,24.83
2022-12-05T02:05:51.112Z,23.03
2022-12-05T02:08:20.747Z,24.60
2022-12-05T02:10:52.854Z,26.40
2022-12-05T02:13:38.433Z,25.60
2022-12-05T02:16:12.995Z,23.80
2022-12-05T02:18:56.285Z,24.60
2022-12-05T02:21:45.106Z,25.10
2022-12-05T02:24:38.781Z,24.20
2022-12-05T02:27:19.770Z,22.50
2022-12-05T02:30:03.386Z,23.60
2022-12-05T02:32:39.750Z,22.40
2022-12-05T02:35:15.070Z,23.37
2022-12-05T02:37:51.976Z,23.43
2022-12-05T02:40:26.184Z,23.13
2022-12-05T02:43:01.094Z,23.30
2022-12-05T02:45:35.187Z,23.90
2022-12-05T02:48:03.417Z,22.57
2022-12-05T02:50:36.182Z,24.40
2022-12-05T02:53:09.352Z,22.43
2022-12-05T02:55:39.299Z,22.80
2022-12-05T02:58:12.995Z,22.90
2022-12-05T03:00:46.224Z,22.10
2022-12-05T03:03:18.318Z,22.27
2022-12-05T03:05:53.148Z,22.50
2022-12-05T03:08:28.439Z,23.43
2022-12-05T03:10:58.541Z,21.37
2022-12-05T03:13:30.197Z,19.70
2022-12-05T03:16:07.054Z,21.10
2022-12-05T03:18:39.591Z,22.70
2022-12-05T03:21:19.683Z,22.50
2022-12-05T03:23:52.102Z,22.13
2022-12-05T03:26:31.837Z,21.23
2022-12-05T03:29:07.602Z,24.43
2022-12-05T03:31:43.315Z,21.30
2022-12-05T03:34:16.762Z,22.13
2022-12-05T03:36:50.362Z,21.37
2022-12-05T03:39:24.417Z,20.83
2022-12-05T03:42:00.826Z,22.80
2022-12-05T03:44:36.528Z,21.30
2022-12-05T03:47:11.703Z,24.40
2022-12-05T03:49:44.255Z,20.40
2022-12-05T03:52:17.053Z,22.70
2022-12-05T03:54:48.185Z,20.77
2022-12-05T03:57:21.817Z,22.67
2022-12-05T03:59:53.567Z,20.80
2022-12-05T04:02:27.738Z,21.90
2022-12-05T04:04:59.721Z,22.23
2022-12-05T04:07:32.676Z,22.27
2022-12-05T04:10:04.206Z,21.87
2022-12-05T04:12:34.281Z,22.67
2022-12-05T04:15:06.831Z,23.83
2022-12-05T04:17:43.077Z,22.77
2022-12-05T04:20:33.274Z,22.70
2022-12-05T04:23:01.806Z,23.87
2022-12-05T04:25:36.373Z,21.47
2022-12-05T04:28:21.770Z,23.90
2022-12-05T04:30:54.612Z,23.13
2022-12-05T04:33:32.180Z,23.93
2022-12-05T04:36:06.753Z,23.67
2022-12-05T04:38:42.802Z,23.87
2022-12-05T04:41:15.345Z,22.87
2022-12-05T04:43:46.068Z,22.83
2022-12-05T04:46:17.067Z,23.60
2022-12-05T04:48:51.974Z,23.43
2022-12-05T04:51:23.210Z,22.67
2022-12-05T04:53:56.049Z,22.37
2022-12-05T04:56:28.028Z,24.77
2022-12-05T04:58:56.272Z,23.83
2022-12-05T05:01:28.708Z,22.70
2022-12-05T05:04:01.995Z,23.10
2022-12-05T05:06:30.679Z,20.90
2022-12-05T05:08:59.770Z,21.40
2022-12-05T05:11:29.982Z,20.50
2022-12-05T05:13:57.892Z,22.23
2022-12-05T05:16:27.819Z,21.20
2022-12-05T05:19:00.594Z,21.83
2022-12-05T05:21:30.497Z,22.90
2022-12-05T05:23:59.034Z,21.60
2022-12-05T05:26:28.088Z,21.47
2022-12-05T05:28:58.171Z,21.10
2022-12-05T05:31:26.335Z,22.03
2022-12-05T05:33:56.022Z,20.60
2022-12-05T05:36:27.300Z,23.67
2022-12-05T05:38:56.885Z,26.07
2022-12-05T05:41:27.463Z,24.53
2022-12-05T05:43:56.095Z,25.63
2022-12-05T05:46:26.289Z,27.23
2022-12-05T05:48:54.345Z,22.83
2022-12-05T05:51:23.472Z,33.00
2022-12-05T05:53:52.923Z,30.23
2022-12-05T05:56:22.301Z,31.50
2022-12-05T05:58:56.503Z,36.20
2022-12-05T06:01:24.746Z,37.93
2022-12-05T06:03:52.995Z,32.13
2022-12-05T06:06:22.058Z,36.13
2022-12-05T06:08:50.336Z,32.27
2022-12-05T06:11:25.992Z,25.40
2022-12-05T06:13:55.335Z,24.17
2022-12-05T06:16:23.472Z,24.53
2022-12-05T06:18:52.998Z,23.47
2022-12-05T06:21:21.548Z,29.10
2022-12-05T06:23:50.028Z,24.40
2022-12-05T06:26:21.497Z,30.63
2022-12-05T06:28:49.725Z,33.10
2022-12-05T06:31:19.866Z,24.07
2022-12-05T06:33:48.217Z,27.63
2022-12-05T06:36:18.798Z,31.90
2022-12-05T06:38:47.177Z,26.50
2022-12-05T06:41:17.259Z,28.57
2022-12-05T06:43:46.902Z,25.00
2022-12-05T06:46:16.324Z,26.70
2022-12-05T06:48:44.633Z,26.10
2022-12-05T06:51:15.105Z,41.03
2022-12-05T06:53:43.945Z,24.40
2022-12-05T06:56:13.802Z,22.63
2022-12-05T06:58:42.048Z,22.37
2022-12-05T07:01:31.800Z,24.30
2022-12-05T07:04:00.384Z,21.77
2022-12-05T07:06:29.008Z,23.07
2022-12-05T07:08:56.972Z,21.53
2022-12-05T07:11:25.247Z,21.57
2022-12-05T07:13:53.298Z,23.10
2022-12-05T07:16:22.909Z,23.47
2022-12-05T07:18:51.273Z,25.60
2022-12-05T07:21:21.588Z,22.57
2022-12-05T07:23:51.050Z,103.63
2022-12-05T07:26:21.193Z,24.37
2022-12-05T07:28:49.954Z,23.67
2022-12-05T07:31:20.124Z,23.47
2022-12-05T07:33:50.033Z,23.20
2022-12-05T07:36:20.250Z,19.20
2022-12-05T07:38:48.589Z,20.67
2022-12-05T07:41:20.928Z,35.70
2022-12-05T07:43:48.962Z,21.93
2022-12-05T07:46:17.497Z,24.20
2022-12-05T07:48:45.484Z,22.20
2022-12-05T07:51:14.762Z,21.90
2022-12-05T07:53:44.265Z,20.80
2022-12-05T07:56:16.836Z,24.97
2022-12-05T07:58:46.119Z,21.30
2022-12-05T08:01:16.186Z,28.00
2022-12-05T08:03:45.532Z,26.50
2022-12-05T08:06:16.677Z,25.07
2022-12-05T08:08:44.803Z,25.27
2022-12-05T08:11:14.965Z,28.83
2022-12-05T08:13:43.378Z,25.30
2022-12-05T08:16:13.703Z,19.97
2022-12-05T08:18:42.136Z,23.10
2022-12-05T08:21:11.704Z,18.33
2022-12-05T08:23:41.857Z,21.60
2022-12-05T08:26:11.955Z,17.30
2022-12-05T08:28:40.170Z,19.87
2022-12-05T08:31:10.616Z,22.00
2022-12-05T08:33:38.833Z,23.10
2022-12-05T08:36:09.513Z,18.93
2022-12-05T08:38:38.040Z,20.03
2022-12-05T08:41:09.596Z,27.30
2022-12-05T08:43:37.637Z,20.77
2022-12-05T08:46:06.412Z,20.67
2022-12-05T08:48:35.984Z,36.07
2022-12-05T08:51:07.209Z,19.03
2022-12-05T08:53:40.975Z,18.07
2022-12-05T08:56:14.210Z,18.27
2022-12-05T08:58:42.731Z,16.63
2022-12-05T09:01:12.963Z,17.00
2022-12-05T09:03:47.305Z,20.83
2022-12-05T09:06:17.845Z,21.20
2022-12-05T09:08:46.102Z,18.40
2022-12-05T09:11:17.478Z,18.80
2022-12-05T09:13:46.468Z,17.67
2022-12-05T09:16:16.380Z,19.07
2022-12-05T09:18:45.170Z,16.93
2022-12-05T09:21:15.093Z,17.53
2022-12-05T09:23:43.067Z,18.00
2022-12-05T09:26:15.178Z,19.77
2022-12-05T09:28:45.648Z,19.00
2022-12-05T09:31:16.559Z,20.53
2022-12-05T09:33:45.050Z,18.97
2022-12-05T09:36:15.102Z,18.90
2022-12-05T09:38:43.290Z,18.20
2022-12-05T09:41:44.205Z,24.60
2022-12-05T09:44:19.532Z,20.00
2022-12-05T09:46:54.379Z,21.90
2022-12-05T09:49:24.402Z,17.30
2022-12-05T09:51:55.447Z,16.00
2022-12-05T09:54:25.895Z,16.10
2022-12-05T09:56:54.138Z,16.17
2022-12-05T09:59:23.476Z,16.73
2022-12-05T10:01:58.499Z,16.70
2022-12-05T10:04:52.384Z,17.93
2022-12-05T10:07:26.732Z,17.60
2022-12-05T10:10:04.161Z,17.90
2022-12-05T10:12:47.913Z,17.17
2022-12-05T10:15:30.436Z,18.30
2022-12-05T10:18:00.735Z,18.03
2022-12-05T10:20:37.426Z,19.20
2022-12-05T10:23:18.632Z,17.43
2022-12-05T10:25:59.966Z,18.40
2022-12-05T10:28:34.499Z,16.63
2022-12-05T10:31:08.371Z,17.57
2022-12-05T10:33:40.291Z,16.10
2022-12-05T10:36:12.448Z,18.03
2022-12-05T10:38:40.930Z,17.07
2022-12-05T10:41:10.957Z,15.83
2022-12-05T10:43:42.455Z,17.40
2022-12-05T10:46:16.887Z,16.43
2022-12-05T10:48:45.575Z,17.97
2022-12-05T10:51:16.699Z,18.40
2022-12-05T10:53:49.411Z,15.93
2022-12-05T10:56:40.426Z,15.10
2022-12-05T10:59:10.402Z,14.60
2022-12-05T11:01:46.721Z,15.90
2022-12-05T11:04:41.185Z,16.83
2022-12-05T11:07:22.958Z,16.90
2022-12-05T11:09:51.130Z,14.50
2022-12-05T11:12:22.265Z,14.07
2022-12-05T11:15:03.090Z,18.63
2022-12-05T11:17:37.564Z,18.10
2022-12-05T11:20:49.883Z,24.07
2022-12-05T11:23:26.087Z,18.10
2022-12-05T11:25:54.775Z,17.60
2022-12-05T11:28:37.798Z,20.53
2022-12-05T11:31:08.877Z,14.97
2022-12-05T11:33:37.631Z,18.73
2022-12-05T11:36:13.270Z,18.50
2022-12-05T11:38:43.064Z,50.47
2022-12-05T11:41:35.679Z,23.10
2022-12-05T11:44:29.208Z,16.70
2022-12-05T11:47:06.993Z,14.47
2022-12-05T11:49:59.794Z,13.83
2022-12-05T11:52:40.445Z,23.23
2022-12-05T11:55:17.384Z,37.73
2022-12-05T11:58:04.585Z,19.40
2022-12-05T12:00:41.146Z,15.17
2022-12-05T12:03:39.505Z,16.27
2022-12-05T12:06:28.257Z,14.60
2022-12-05T12:09:15.825Z,14.00
2022-12-05T12:11:52.360Z,16.83
2022-12-05T12:14:28.559Z,16.07
2022-12-05T12:17:08.833Z,14.83
2022-12-05T12:20:09.711Z,17.07
2022-12-05T12:22:48.541Z,27.10
2022-12-05T12:25:25.960Z,15.47
2022-12-05T12:28:05.898Z,13.67
2022-12-05T12:30:48.615Z,14.60
2022-12-05T12:33:34.157Z,13.27
2022-12-05T12:36:11.660Z,17.47
2022-12-05T12:39:07.608Z,15.87
2022-12-05T12:41:54.289Z,17.30
2022-12-05T12:45:04.768Z,14.73
2022-12-05T12:47:44.424Z,13.90
2022-12-05T12:50:19.204Z,13.20
2022-12-05T12:53:11.681Z,17.33
2022-12-05T12:55:46.008Z,15.30
2022-12-05T12:58:28.998Z,13.23
2022-12-05T13:01:05.530Z,15.10
2022-12-05T13:03:40.445Z,14.77
2022-12-05T13:06:14.295Z,12.20
2022-12-05T13:08:46.332Z,12.70
2022-12-05T13:11:16.306Z,12.30
2022-12-05T13:13:48.085Z,28.87
2022-12-05T13:16:24.744Z,13.90
2022-12-05T13:18:52.828Z,14.50
2022-12-05T13:21:21.470Z,15.43
2022-12-05T13:23:52.233Z,11.47
2022-12-05T13:26:21.498Z,11.23
2022-12-05T13:28:53.456Z,13.30
2022-12-05T13:31:39.714Z,15.30
2022-12-05T13:34:29.183Z,14.23
2022-12-05T13:37:17.184Z,14.03
2022-12-05T13:40:10.786Z,15.63
2022-12-05T13:42:38.977Z,11.53
2022-12-05T13:45:10.208Z,13.03
2022-12-05T13:48:01.496Z,12.90
2022-12-05T13:50:35.429Z,25.00
2022-12-05T13:53:07.330Z,18.73
2022-12-05T13:55:37.463Z,17.30
2022-12-05T13:58:45.382Z,11.10
2022-12-05T14:01:51.915Z,10.40
2022-12-05T14:04:51.024Z,10.40
2022-12-05T14:07:40.728Z,8.83
2022-12-05T14:10:10.671Z,8.53
2022-12-05T14:12:56.381Z,9.80
2022-12-05T14:15:35.767Z,9.47
2022-12-05T14:18:16.863Z,10.90
2022-12-05T14:20:59.262Z,12.10
2022-12-05T14:23:59.603Z,10.83
2022-12-05T14:26:44.865Z,13.20
2022-12-05T14:29:38.436Z,10.63
2022-12-05T14:32:15.322Z,9.20
2022-12-05T14:34:56.187Z,9.80
2022-12-05T14:37:30.018Z,10.40
2022-12-05T14:40:00.145Z,9.90
2022-12-05T14:42:38.329Z,11.47
2022-12-05T14:45:35.439Z,11.07
2022-12-05T14:48:05.378Z,11.73
2022-12-05T14:50:45.751Z,11.10
2022-12-05T14:53:36.699Z,11.47
2022-12-05T14:56:18.551Z,10.83
2022-12-05T14:58:58.970Z,10.60
2022-12-05T15:01:30.203Z,11.20
2022-12-05T15:04:09.269Z,10.80
2022-12-05T15:06:47.415Z,12.37
2022-12-05T15:09:37.754Z,10.20
2022-12-05T15:12:12.085Z,10.70
2022-12-05T15:14:48.007Z,10.40
2022-12-05T15:17:22.681Z,9.87
2022-12-05T15:19:56.116Z,10.20
2022-12-05T15:22:28.749Z,10.90
2022-12-05T15:24:58.670Z,12.37
2022-12-05T15:27:26.853Z,11.27
2022-12-05T15:29:56.505Z,11.40
2022-12-05T15:32:28.712Z,11.20
2022-12-05T15:35:01.823Z,10.00
2022-12-05T15:37:35.538Z,10.80
2022-12-05T15:40:14.088Z,10.43
2022-12-05T15:42:44.549Z,10.23
2022-12-05T15:45:23.287Z,11.43
2022-12-05T15:47:52.845Z,9.87
2022-12-05T15:50:25.465Z,10.57
2022-12-05T15:52:58.129Z,10.53
2022-12-05T15:55:30.939Z,10.10
2022-12-05T15:58:11.195Z,13.80
2022-12-05T16:00:46.386Z,10.53
2022-12-05T16:03:19.185Z,11.70
2022-12-05T16:05:51.049Z,10.13
2022-12-05T16:08:19.449Z,10.17
2022-12-05T16:10:48.917Z,11.87
2022-12-05T16:13:19.039Z,10.40
2022-12-05T16:15:52.825Z,11.03
2022-12-05T16:18:28.453Z,10.33
2022-12-05T16:20:56.978Z,10.97
2022-12-05T16:23:28.184Z,10.40
2022-12-05T16:26:16.522Z,10.90
2022-12-05T16:28:57.180Z,11.50
2022-12-05T16:31:25.382Z,10.80
2022-12-05T16:34:02.853Z,11.63
2022-12-05T16:36:31.270Z,10.87
2022-12-05T16:39:04.323Z,9.60
2022-12-05T16:41:38.660Z,10.10
2022-12-05T16:44:26.871Z,10.40
2022-12-05T16:46:55.514Z,10.90
2022-12-05T16:49:35.167Z,11.87
2022-12-05T16:52:14.002Z,15.77
2022-12-05T16:54:42.593Z,13.27
2022-12-05T16:57:14.794Z,24.47
2022-12-05T16:59:44.059Z,15.50
2022-12-05T17:02:14.635Z,12.83
2022-12-05T17:04:42.953Z,11.00
2022-12-05T17:07:11.214Z,11.03
2022-12-05T17:09:39.127Z,12.70
2022-12-05T17:12:12.828Z,15.00
2022-12-05T17:14:42.159Z,12.67
2022-12-05T17:17:13.906Z,14.57
2022-12-05T17:19:41.817Z,11.83
2022-12-05T17:22:09.881Z,12.80
2022-12-05T17:24:37.894Z,11.70
2022-12-05T17:27:07.011Z,12.67
2022-12-05T17:29:36.026Z,11.40
2022-12-05T17:32:06.209Z,10.93
2022-12-05T17:34:34.153Z,11.50
2022-12-05T17:37:02.534Z,12.77
2022-12-05T17:39:30.537Z,12.17
2022-12-05T17:41:58.465Z,11.13
2022-12-05T17:44:26.521Z,12.07
2022-12-05T17:46:54.494Z,11.87
2022-12-05T17:49:24.528Z,11.77
2022-12-05T17:52:20.680Z,10.90
2022-12-05T17:54:41.882Z,11.70
2022-12-05T17:57:09.818Z,11.90
2022-12-05T17:59:38.207Z,11.33
2022-12-05T18:02:06.301Z,9.60
2022-12-05T18:04:36.686Z,9.77
2022-12-05T18:07:04.804Z,12.33
2022-12-05T18:09:33.941Z,12.23
2022-12-05T18:12:02.188Z,11.60
2022-12-05T18:14:30.785Z,11.57
2022-12-05T18:16:59.066Z,11.50
2022-12-05T18:19:27.346Z,14.07
2022-12-05T18:21:56.683Z,12.30
2022-12-05T18:24:24.725Z,13.97
2022-12-05T18:26:55.762Z,12.83
2022-12-05T18:29:23.900Z,14.23
2022-12-05T18:31:51.917Z,11.67
2022-12-05T18:34:20.239Z,12.43
2022-12-05T18:36:48.145Z,12.43
2022-12-05T18:39:17.551Z,11.93
2022-12-05T18:41:45.598Z,12.13
2022-12-05T18:44:13.822Z,13.27
2022-12-05T18:46:42.150Z,11.40
2022-12-05T18:49:12.358Z,10.33
2022-12-05T18:51:41.426Z,10.57
2022-12-05T18:54:09.405Z,11.60
2022-12-05T18:56:40.063Z,10.30
2022-12-05T18:59:10.166Z,10.03
2022-12-05T19:01:40.928Z,10.67
2022-12-05T19:04:12.226Z,11.07
2022-12-05T19:06:42.848Z,10.70
2022-12-05T19:09:13.673Z,9.50
2022-12-05T19:11:47.361Z,10.57
2022-12-05T19:14:17.125Z,11.20
2022-12-05T19:16:45.404Z,9.43
2022-12-05T19:19:15.520Z,10.57
2022-12-05T19:21:43.518Z,11.10
2022-12-05T19:24:14.534Z,10.70
2022-12-05T19:26:44.613Z,10.40
2022-12-05T19:29:13.717Z,10.90
2022-12-05T19:31:41.780Z,10.63
2022-12-05T19:34:10.543Z,10.03
2022-12-05T19:36:40.397Z,9.50
2022-12-05T19:39:10.282Z,10.80
2022-12-05T19:41:38.285Z,11.17
2022-12-05T19:44:07.589Z,11.80
2022-12-05T19:46:35.897Z,11.20
2022-12-05T19:49:06.554Z,10.77
2022-12-05T19:51:35.792Z,10.57
2022-12-05T19:54:05.282Z,10.03
2022-12-05T19:56:35.148Z,11.13
2022-12-05T19:59:03.656Z,9.57
2022-12-05T20:01:35.150Z,11.40
2022-12-05T20:04:04.796Z,11.17
2022-12-05T20:06:35.424Z,11.40
2022-12-05T20:09:03.828Z,9.90
2022-12-05T20:11:32.053Z,10.30
2022-12-05T20:14:01.426Z,10.83
2022-12-05T20:16:30.232Z,10.37
2022-12-05T20:19:00.525Z,12.13
2022-12-05T20:21:30.400Z,11.60
2022-12-05T20:24:00.671Z,11.87
2022-12-05T20:26:30.682Z,10.73
2022-12-05T20:28:59.494Z,10.40
2022-12-05T20:31:29.678Z,9.00
2022-12-05T20:33:59.268Z,9.60
2022-12-05T20:36:28.881Z,9.73
2022-12-05T20:38:57.978Z,10.07
2022-12-05T20:41:26.182Z,9.10
2022-12-05T20:43:56.077Z,11.00
2022-12-05T20:46:24.759Z,11.57
2022-12-05T20:48:53.524Z,9.90
2022-12-05T20:51:24.553Z,10.53
2022-12-05T20:53:53.033Z,10.53
2022-12-05T20:56:22.211Z,10.83
2022-12-05T20:58:51.874Z,9.80
2022-12-05T21:01:21.353Z,11.53
2022-12-05T21:03:51.078Z,9.60
2022-12-05T21:06:22.702Z,10.50
2022-12-05T21:08:52.553Z,9.77
2022-12-05T21:11:21.290Z,8.73
2022-12-05T21:13:49.481Z,8.57
2022-12-05T21:16:19.209Z,9.73
2022-12-05T21:18:49.241Z,11.00
2022-12-05T21:21:19.268Z,10.07
2022-12-05T21:23:52.717Z,10.67
2022-12-05T21:26:22.903Z,9.07
2022-12-05T21:28:51.108Z,10.07
2022-12-05T21:31:21.827Z,8.90
2022-12-05T21:33:51.736Z,9.63
2022-12-05T21:36:20.666Z,11.53
2022-12-05T21:38:54.148Z,10.10
2022-12-05T21:41:25.957Z,9.17
2022-12-05T21:43:55.581Z,9.93
2022-12-05T21:46:24.312Z,9.57
2022-12-05T21:48:52.488Z,10.70
2022-12-05T21:51:21.353Z,12.37
2022-12-05T21:53:49.424Z,11.40
2022-12-05T21:56:19.464Z,11.43
2022-12-05T21:58:48.757Z,11.97
2022-12-05T22:01:19.046Z,12.90
2022-12-05T22:03:47.314Z,11.90
2022-12-05T22:06:15.718Z,10.53
2022-12-05T22:08:44.378Z,12.13
2022-12-05T22:11:14.442Z,11.50
2022-12-05T22:13:43.077Z,10.70
2022-12-05T22:16:13.260Z,10.97
2022-12-05T22:18:41.499Z,10.80
2022-12-05T22:21:12.818Z,9.97
2022-12-05T22:23:41.144Z,10.33
2022-12-05T22:26:11.197Z,12.37
2022-12-05T22:28:39.742Z,9.57
2022-12-05T22:31:10.921Z,10.47
2022-12-05T22:33:40.617Z,8.73
2022-12-05T22:36:11.361Z,8.77
2022-12-05T22:38:41.234Z,8.43
2022-12-05T22:41:13.496Z,7.63
2022-12-05T22:43:41.960Z,7.97
2022-12-05T22:46:11.882Z,9.10
2022-12-05T22:48:41.986Z,9.20
2022-12-05T22:51:10.247Z,8.10
2022-12-05T22:53:38.641Z,7.23
2022-12-05T22:56:08.986Z,6.63
2022-12-05T22:58:37.403Z,6.60
2022-12-05T23:01:14.193Z,6.60
2022-12-05T23:03:45.032Z,6.57
2022-12-05T23:06:14.547Z,5.40
2022-12-05T23:08:43.963Z,6.37
2022-12-05T23:11:12.686Z,5.97
2022-12-05T23:13:40.954Z,5.10
2022-12-05T23:16:11.164Z,5.80
2022-12-05T23:18:47.570Z,6.43
2022-12-05T23:21:21.767Z,5.97
2022-12-05T23:23:51.866Z,6.67
2022-12-05T23:26:21.381Z,6.67
2022-12-05T23:28:49.905Z,5.77
2022-12-05T23:31:18.601Z,7.10
2022-12-05T23:33:50.876Z,6.03
2022-12-05T23:36:21.787Z,5.00
2022-12-05T23:38:49.898Z,5.50
2022-12-05T23:41:20.172Z,5.70
2022-12-05T23:43:49.458Z,4.53
2022-12-05T23:46:18.876Z,4.80
2022-12-05T23:48:47.158Z,5.60
2022-12-05T23:51:17.015Z,4.30
2022-12-05T23:53:47.619Z,4.43
2022-12-05T23:56:18.353Z,4.13
2022-12-05T23:58:46.855Z,3.33
